sensor_id;sensor_type;location;lat;lon;timestamp;pressure;altitude;pressure_sealevel;temperature;humidity
28911;BME280;16028;42.642;23.310;2023-03-01T00:00:03;94444.66;;;6.83;100.00
28911;BME280;16028;42.642;23.310;2023-03-01T00:02:31;94440.69;;;6.79;100.00
28911;BME280;16028;42.642;23.310;2023-03-01T00:04:57;94437.03;;;6.82;100.00
28911;BME280;16028;42.642;23.310;2023-03-01T00:07:24;94432.34;;;6.76;100.00
28911;BME280;16028;42.642;23.310;2023-03-01T00:09:50;94432.69;;;6.82;100.00
28911;BME280;16028;42.642;23.310;2023-03-01T00:12:17;94423.06;;;6.84;100.00
28911;BME280;16028;42.642;23.310;2023-03-01T00:14:43;94424.59;;;6.87;100.00
28911;BME280;16028;42.642;23.310;2023-03-01T00:17:10;94424.81;;;6.84;100.00
28911;BME280;16028;42.642;23.310;2023-03-01T00:19:37;94417.97;;;6.83;100.00
28911;BME280;16028;42.642;23.310;2023-03-01T00:22:04;94409.75;;;6.78;100.00
28911;BME280;16028;42.642;23.310;2023-03-01T00:24:30;94410.22;;;6.72;100.00
28911;BME280;16028;42.642;23.310;2023-03-01T00:26:57;94394.94;;;6.69;100.00
28911;BME280;16028;42.642;23.310;2023-03-01T00:29:23;94391.66;;;6.67;100.00
28911;BME280;16028;42.642;23.310;2023-03-01T00:31:50;94383.78;;;6.68;100.00
28911;BME280;16028;42.642;23.310;2023-03-01T00:34:17;94390.00;;;6.66;100.00
28911;BME280;16028;42.642;23.310;2023-03-01T00:36:45;94390.25;;;6.63;100.00
28911;BME280;16028;42.642;23.310;2023-03-01T00:39:12;94390.00;;;6.66;100.00
28911;BME280;16028;42.642;23.310;2023-03-01T00:41:39;94390.00;;;6.66;100.00
28911;BME280;16028;42.642;23.310;2023-03-01T00:44:06;94389.78;;;6.69;100.00
28911;BME280;16028;42.642;23.310;2023-03-01T00:46:32;94387.28;;;6.67;100.00
28911;BME280;16028;42.642;23.310;2023-03-01T00:48:59;94382.72;;;6.71;100.00
28911;BME280;16028;42.642;23.310;2023-03-01T00:51:27;94385.91;;;6.63;100.00
28911;BME280;16028;42.642;23.310;2023-03-01T00:53:56;94375.66;;;6.62;100.00
28911;BME280;16028;42.642;23.310;2023-03-01T00:56:23;94378.47;;;6.59;100.00
28911;BME280;16028;42.642;23.310;2023-03-01T00:58:49;94376.81;;;6.58;100.00
28911;BME280;16028;42.642;23.310;2023-03-01T01:01:17;94388.72;;;6.60;100.00
28911;BME280;16028;42.642;23.310;2023-03-01T01:03:44;94380.00;;;6.61;100.00
28911;BME280;16028;42.642;23.310;2023-03-01T01:06:17;94383.56;;;6.60;100.00
28911;BME280;16028;42.642;23.310;2023-03-01T01:08:44;94383.88;;;6.56;100.00
28911;BME280;16028;42.642;23.310;2023-03-01T01:11:12;94373.31;;;6.59;100.00
28911;BME280;16028;42.642;23.310;2023-03-01T01:13:39;94378.72;;;6.56;100.00
28911;BME280;16028;42.642;23.310;2023-03-01T01:16:06;94378.47;;;6.59;100.00
28911;BME280;16028;42.642;23.310;2023-03-01T01:18:32;94372.16;;;6.63;100.00
28911;BME280;16028;42.642;23.310;2023-03-01T01:21:03;94379.06;;;6.62;100.00
28911;BME280;16028;42.642;23.310;2023-03-01T01:23:29;94376.16;;;6.67;100.00
28911;BME280;16028;42.642;23.310;2023-03-01T01:25:56;94382.50;;;6.63;100.00
28911;BME280;16028;42.642;23.310;2023-03-01T01:28:24;94381.66;;;6.62;100.00
28911;BME280;16028;42.642;23.310;2023-03-01T01:30:50;94379.78;;;6.64;100.00
28911;BME280;16028;42.642;23.310;2023-03-01T01:33:16;94381.91;;;6.59;100.00
28911;BME280;16028;42.642;23.310;2023-03-01T01:35:44;94388.59;;;6.62;100.00
28911;BME280;16028;42.642;23.310;2023-03-01T01:38:11;94386.69;;;6.64;100.00
28911;BME280;16028;42.642;23.310;2023-03-01T01:40:42;94392.09;;;6.61;100.00
28911;BME280;16028;42.642;23.310;2023-03-01T01:43:10;94400.91;;;6.58;100.00
28911;BME280;16028;42.642;23.310;2023-03-01T01:45:40;94399.16;;;6.59;100.00
28911;BME280;16028;42.642;23.310;2023-03-01T01:48:10;94405.47;;;6.55;100.00
28911;BME280;16028;42.642;23.310;2023-03-01T01:50:39;94398.69;;;6.54;100.00
28911;BME280;16028;42.642;23.310;2023-03-01T01:53:07;94403.03;;;6.53;100.00
28911;BME280;16028;42.642;23.310;2023-03-01T01:55:36;94391.16;;;6.51;100.00
28911;BME280;16028;42.642;23.310;2023-03-01T01:58:04;94390.94;;;6.54;100.00
28911;BME280;16028;42.642;23.310;2023-03-01T02:00:31;94399.38;;;6.56;100.00
28911;BME280;16028;42.642;23.310;2023-03-01T02:03:00;94393.38;;;6.55;100.00
28911;BME280;16028;42.642;23.310;2023-03-01T02:05:33;94393.97;;;6.59;100.00
28911;BME280;16028;42.642;23.310;2023-03-01T02:08:01;94383.41;;;6.62;100.00
28911;BME280;16028;42.642;23.310;2023-03-01T02:10:28;94377.31;;;6.63;99.97
28911;BME280;16028;42.642;23.310;2023-03-01T02:12:55;94375.44;;;6.65;99.24
28911;BME280;16028;42.642;23.310;2023-03-01T02:15:22;94370.72;;;6.59;98.79
28911;BME280;16028;42.642;23.310;2023-03-01T02:17:49;94373.53;;;6.56;99.82
28911;BME280;16028;42.642;23.310;2023-03-01T02:20:18;94370.72;;;6.59;99.69
28911;BME280;16028;42.642;23.310;2023-03-01T02:22:47;94377.41;;;6.50;99.62
28911;BME280;16028;42.642;23.310;2023-03-01T02:25:27;94385.63;;;6.44;99.44
28911;BME280;16028;42.642;23.310;2023-03-01T02:27:55;94380.31;;;6.46;99.89
28911;BME280;16028;42.642;23.310;2023-03-01T02:30:24;94378.72;;;6.56;99.07
28911;BME280;16028;42.642;23.310;2023-03-01T02:32:53;94377.19;;;6.53;99.00
28911;BME280;16028;42.642;23.310;2023-03-01T02:35:18;94384.91;;;6.42;99.07
28911;BME280;16028;42.642;23.310;2023-03-01T02:37:45;94393.59;;;6.41;99.50
28911;BME280;16028;42.642;23.310;2023-03-01T02:40:15;94386.19;;;6.36;99.78
28911;BME280;16028;42.642;23.310;2023-03-01T02:42:45;94395.47;;;6.39;100.00
28911;BME280;16028;42.642;23.310;2023-03-01T02:45:14;94385.84;;;6.41;100.00
28911;BME280;16028;42.642;23.310;2023-03-01T02:47:42;94391.34;;;6.36;100.00
28911;BME280;16028;42.642;23.310;2023-03-01T02:50:14;94383.59;;;6.36;100.00
28911;BME280;16028;42.642;23.310;2023-03-01T02:52:45;94381.72;;;6.38;100.00
28911;BME280;16028;42.642;23.310;2023-03-01T02:55:14;94388.16;;;6.33;100.00
28911;BME280;16028;42.642;23.310;2023-03-01T02:57:43;94376.06;;;6.33;100.00
28911;BME280;16028;42.642;23.310;2023-03-01T03:00:10;94391.56;;;6.33;100.00
28911;BME280;16028;42.642;23.310;2023-03-01T03:02:45;94374.41;;;6.32;100.00
28911;BME280;16028;42.642;23.310;2023-03-01T03:05:12;94386.41;;;6.33;100.00
28911;BME280;16028;42.642;23.310;2023-03-01T03:07:40;94374.31;;;6.34;100.00
28911;BME280;16028;42.642;23.310;2023-03-01T03:10:08;94382.41;;;6.29;100.00
28911;BME280;16028;42.642;23.310;2023-03-01T03:12:36;94376.06;;;6.33;100.00
28911;BME280;16028;42.642;23.310;2023-03-01T03:15:06;94384.88;;;6.31;100.00
28911;BME280;16028;42.642;23.310;2023-03-01T03:17:34;94389.53;;;6.26;100.00
28911;BME280;16028;42.642;23.310;2023-03-01T03:20:02;94389.09;;;6.32;100.00
28911;BME280;16028;42.642;23.310;2023-03-01T03:22:30;94377.72;;;6.34;100.00
28911;BME280;16028;42.642;23.310;2023-03-01T03:24:56;94376.78;;;6.35;100.00
28911;BME280;16028;42.642;23.310;2023-03-01T03:27:22;94379.25;;;6.37;100.00
28911;BME280;16028;42.642;23.310;2023-03-01T03:29:49;94377.72;;;6.34;100.00
28911;BME280;16028;42.642;23.310;2023-03-01T03:32:15;94384.44;;;6.37;100.00
28911;BME280;16028;42.642;23.310;2023-03-01T03:34:42;94377.28;;;6.41;100.00
28911;BME280;16028;42.642;23.310;2023-03-01T03:37:10;94384.44;;;6.37;100.00
28911;BME280;16028;42.642;23.310;2023-03-01T03:39:57;94378.44;;;6.36;100.00
28911;BME280;16028;42.642;23.310;2023-03-01T03:42:23;94377.16;;;6.42;100.00
28911;BME280;16028;42.642;23.310;2023-03-01T03:44:49;94378.81;;;6.43;100.00
28911;BME280;16028;42.642;23.310;2023-03-01T03:47:16;94378.91;;;6.42;100.00
28911;BME280;16028;42.642;23.310;2023-03-01T03:49:42;94392.41;;;6.45;100.00
28911;BME280;16028;42.642;23.310;2023-03-01T03:52:10;94389.84;;;6.45;100.00
28911;BME280;16028;42.642;23.310;2023-03-01T03:54:38;94388.06;;;6.46;100.00
28911;BME280;16028;42.642;23.310;2023-03-01T03:57:05;94386.66;;;6.42;100.00
28911;BME280;16028;42.642;23.310;2023-03-01T03:59:31;94384.06;;;6.42;100.00
28911;BME280;16028;42.642;23.310;2023-03-01T04:01:58;94386.66;;;6.42;100.00
28911;BME280;16028;42.642;23.310;2023-03-01T04:04:24;94386.09;;;6.38;100.00
28911;BME280;16028;42.642;23.310;2023-03-01T04:06:50;94392.41;;;6.34;100.00
28911;BME280;16028;42.642;23.310;2023-03-01T04:09:18;94388.75;;;6.36;100.00
28911;BME280;16028;42.642;23.310;2023-03-01T04:11:45;94401.09;;;6.33;100.00
28911;BME280;16028;42.642;23.310;2023-03-01T04:14:11;94396.38;;;6.27;100.00
28911;BME280;16028;42.642;23.310;2023-03-01T04:16:38;94393.09;;;6.25;100.00
28911;BME280;16028;42.642;23.310;2023-03-01T04:19:04;94387.69;;;6.28;100.00
28911;BME280;16028;42.642;23.310;2023-03-01T04:21:31;94388.63;;;6.27;100.00
28911;BME280;16028;42.642;23.310;2023-03-01T04:23:57;94394.16;;;6.33;100.00
28911;BME280;16028;42.642;23.310;2023-03-01T04:26:25;94395.81;;;6.34;100.00
28911;BME280;16028;42.642;23.310;2023-03-01T04:28:52;94403.56;;;6.34;100.00
28911;BME280;16028;42.642;23.310;2023-03-01T04:31:18;94404.25;;;6.36;100.00
28911;BME280;16028;42.642;23.310;2023-03-01T04:33:46;94398.50;;;6.33;100.00
28911;BME280;16028;42.642;23.310;2023-03-01T04:36:14;94404.25;;;6.36;100.00
28911;BME280;16028;42.642;23.310;2023-03-01T04:38:40;94396.50;;;6.36;100.00
28911;BME280;16028;42.642;23.310;2023-03-01T04:41:08;94387.84;;;6.37;100.00
28911;BME280;16028;42.642;23.310;2023-03-01T04:43:36;94396.28;;;6.28;100.00
28911;BME280;16028;42.642;23.310;2023-03-01T04:46:03;94392.50;;;6.32;100.00
28911;BME280;16028;42.642;23.310;2023-03-01T04:48:31;94391.91;;;6.29;100.00
28911;BME280;16028;42.642;23.310;2023-03-01T04:50:58;94389.44;;;6.27;100.00
28911;BME280;16028;42.642;23.310;2023-03-01T04:53:24;94380.97;;;6.25;100.00
28911;BME280;16028;42.642;23.310;2023-03-01T04:55:51;94385.56;;;6.22;100.00
28911;BME280;16028;42.642;23.310;2023-03-01T04:58:17;94383.69;;;6.24;100.00
28911;BME280;16028;42.642;23.310;2023-03-01T05:00:45;94383.06;;;6.20;100.00
28911;BME280;16028;42.642;23.310;2023-03-01T05:03:11;94372.28;;;6.26;100.00
28911;BME280;16028;42.642;23.310;2023-03-01T05:05:43;94385.19;;;6.26;100.00
28911;BME280;16028;42.642;23.310;2023-03-01T05:08:10;94386.13;;;6.25;100.00
28911;BME280;16028;42.642;23.310;2023-03-01T05:10:43;94387.91;;;6.25;100.00
28911;BME280;16028;42.642;23.310;2023-03-01T05:13:11;94392.13;;;6.26;100.00
28911;BME280;16028;42.642;23.310;2023-03-01T05:15:38;94388.69;;;6.14;100.00
28911;BME280;16028;42.642;23.310;2023-03-01T05:18:06;94383.63;;;6.13;100.00
28911;BME280;16028;42.642;23.310;2023-03-01T05:20:36;94385.50;;;6.11;100.00
28911;BME280;16028;42.642;23.310;2023-03-01T05:23:03;94385.19;;;6.15;100.00
28911;BME280;16028;42.642;23.310;2023-03-01T05:25:30;94388.56;;;6.16;100.00
28911;BME280;16028;42.642;23.310;2023-03-01T05:27:58;94386.59;;;6.19;100.00
28911;BME280;16028;42.642;23.310;2023-03-01T05:30:24;94382.16;;;6.21;100.00
28911;BME280;16028;42.642;23.310;2023-03-01T05:32:52;94386.34;;;6.22;100.00
28911;BME280;16028;42.642;23.310;2023-03-01T05:35:21;94389.78;;;6.23;100.00
28911;BME280;16028;42.642;23.310;2023-03-01T05:37:48;94383.91;;;6.21;100.00
28911;BME280;16028;42.642;23.310;2023-03-01T05:40:16;94380.16;;;6.25;100.00
28911;BME280;16028;42.642;23.310;2023-03-01T05:42:43;94382.53;;;6.28;99.79
28911;BME280;16028;42.642;23.310;2023-03-01T05:45:10;94380.31;;;6.34;100.00
28911;BME280;16028;42.642;23.310;2023-03-01T05:47:37;94379.34;;;6.35;99.86
28911;BME280;16028;42.642;23.310;2023-03-01T05:50:04;94382.66;;;6.37;99.18
28911;BME280;16028;42.642;23.310;2023-03-01T05:52:33;94388.31;;;6.43;98.62
28911;BME280;16028;42.642;23.310;2023-03-01T05:55:00;94398.63;;;6.43;97.81
28911;BME280;16028;42.642;23.310;2023-03-01T05:57:27;94407.00;;;6.46;98.71
28911;BME280;16028;42.642;23.310;2023-03-01T05:59:54;94403.13;;;6.52;97.38
28911;BME280;16028;42.642;23.310;2023-03-01T06:02:20;94402.66;;;6.58;97.52
28911;BME280;16028;42.642;23.310;2023-03-01T06:04:47;94408.44;;;6.61;96.94
28911;BME280;16028;42.642;23.310;2023-03-01T06:07:13;94409.03;;;6.65;96.28
28911;BME280;16028;42.642;23.310;2023-03-01T06:09:42;94410.47;;;6.69;96.92
28911;BME280;16028;42.642;23.310;2023-03-01T06:12:09;94413.03;;;6.69;96.10
28911;BME280;16028;42.642;23.310;2023-03-01T06:14:35;94425.84;;;6.70;96.08
28911;BME280;16028;42.642;23.310;2023-03-01T06:17:03;94428.19;;;6.73;95.59
28911;BME280;16028;42.642;23.310;2023-03-01T06:19:29;94427.63;;;6.70;95.09
28911;BME280;16028;42.642;23.310;2023-03-01T06:21:56;94430.22;;;6.70;95.80
28911;BME280;16028;42.642;23.310;2023-03-01T06:24:22;94428.31;;;6.72;95.00
28911;BME280;16028;42.642;23.310;2023-03-01T06:26:52;94430.91;;;6.72;95.64
28911;BME280;16028;42.642;23.310;2023-03-01T06:29:18;94429.25;;;6.71;95.26
28911;BME280;16028;42.642;23.310;2023-03-01T06:31:45;94421.63;;;6.69;94.99
28911;BME280;16028;42.642;23.310;2023-03-01T06:34:12;94429.47;;;6.68;95.09
28911;BME280;16028;42.642;23.310;2023-03-01T06:36:39;94425.97;;;6.69;94.75
28911;BME280;16028;42.642;23.310;2023-03-01T06:39:06;94431.75;;;6.72;95.04
28911;BME280;16028;42.642;23.310;2023-03-01T06:41:33;94430.91;;;6.72;94.35
28911;BME280;16028;42.642;23.310;2023-03-01T06:44:01;94437.28;;;6.79;94.48
28911;BME280;16028;42.642;23.310;2023-03-01T06:46:28;94427.25;;;6.74;94.68
28911;BME280;16028;42.642;23.310;2023-03-01T06:48:55;94434.09;;;6.75;94.70
28911;BME280;16028;42.642;23.310;2023-03-01T06:51:21;94430.44;;;6.78;94.00
28911;BME280;16028;42.642;23.310;2023-03-01T06:53:48;94426.47;;;6.85;93.07
28911;BME280;16028;42.642;23.310;2023-03-01T06:56:15;94422.59;;;6.79;93.39
28911;BME280;16028;42.642;23.310;2023-03-01T06:58:41;94425.75;;;6.83;92.26
28911;BME280;16028;42.642;23.310;2023-03-01T07:01:09;94425.88;;;6.81;92.66
28911;BME280;16028;42.642;23.310;2023-03-01T07:03:35;94416.47;;;6.80;93.08
28911;BME280;16028;42.642;23.310;2023-03-01T07:06:02;94424.59;;;6.87;92.54
28911;BME280;16028;42.642;23.310;2023-03-01T07:08:29;94426.69;;;6.82;92.96
28911;BME280;16028;42.642;23.310;2023-03-01T07:10:55;94428.91;;;6.86;92.99
28911;BME280;16028;42.642;23.310;2023-03-01T07:13:22;94428.59;;;6.91;92.54
28911;BME280;16028;42.642;23.310;2023-03-01T07:15:48;94426.94;;;6.90;92.51
28911;BME280;16028;42.642;23.310;2023-03-01T07:18:16;94430.13;;;6.93;92.08
28911;BME280;16028;42.642;23.310;2023-03-01T07:20:42;94428.81;;;6.88;92.41
28911;BME280;16028;42.642;23.310;2023-03-01T07:23:09;94422.00;;;6.87;93.65
28911;BME280;16028;42.642;23.310;2023-03-01T07:25:35;94418.59;;;6.86;93.35
28911;BME280;16028;42.642;23.310;2023-03-01T07:28:02;94421.66;;;6.91;93.11
28911;BME280;16028;42.642;23.310;2023-03-01T07:30:28;94411.91;;;6.95;92.47
28911;BME280;16028;42.642;23.310;2023-03-01T07:32:56;94414.38;;;6.97;93.14
28911;BME280;16028;42.642;23.310;2023-03-01T07:35:25;94420.28;;;6.99;93.88
28911;BME280;16028;42.642;23.310;2023-03-01T07:37:51;94405.09;;;7.05;93.24
28911;BME280;16028;42.642;23.310;2023-03-01T07:40:18;94401.22;;;7.11;92.98
28911;BME280;16028;42.642;23.310;2023-03-01T07:42:44;94415.69;;;7.13;91.02
28911;BME280;16028;42.642;23.310;2023-03-01T07:45:11;94410.03;;;7.19;90.66
28911;BME280;16028;42.642;23.310;2023-03-01T07:47:38;94407.34;;;7.21;90.13
28911;BME280;16028;42.642;23.310;2023-03-01T07:50:05;94408.97;;;7.22;89.71
28911;BME280;16028;42.642;23.310;2023-03-01T07:52:33;94415.66;;;7.24;89.82
28911;BME280;16028;42.642;23.310;2023-03-01T07:54:59;94404.88;;;7.19;89.02
28911;BME280;16028;42.642;23.310;2023-03-01T07:57:26;94397.34;;;7.16;89.10
28911;BME280;16028;42.642;23.310;2023-03-01T07:59:52;94402.16;;;7.21;89.22
28911;BME280;16028;42.642;23.310;2023-03-01T08:02:19;94410.38;;;7.26;89.98
28911;BME280;16028;42.642;23.310;2023-03-01T08:04:46;94394.16;;;7.35;90.30
28911;BME280;16028;42.642;23.310;2023-03-01T08:07:12;94399.69;;;7.41;89.92
28911;BME280;16028;42.642;23.310;2023-03-01T08:09:40;94403.53;;;7.47;89.46
28911;BME280;16028;42.642;23.310;2023-03-01T08:12:07;94397.88;;;7.53;87.50
28911;BME280;16028;42.642;23.310;2023-03-01T08:14:33;94396.03;;;7.55;87.23
28911;BME280;16028;42.642;23.310;2023-03-01T08:17:00;94412.25;;;7.57;86.35
28911;BME280;16028;42.642;23.310;2023-03-01T08:19:28;94402.38;;;7.51;88.20
28911;BME280;16028;42.642;23.310;2023-03-01T08:21:54;94405.34;;;7.47;87.68
28911;BME280;16028;42.642;23.310;2023-03-01T08:24:23;94400.63;;;7.52;87.76
28911;BME280;16028;42.642;23.310;2023-03-01T08:26:51;94394.50;;;7.53;88.49
28911;BME280;16028;42.642;23.310;2023-03-01T08:29:18;94402.63;;;7.48;87.14
28911;BME280;16028;42.642;23.310;2023-03-01T08:31:44;94400.50;;;7.42;87.81
28911;BME280;16028;42.642;23.310;2023-03-01T08:34:12;94405.56;;;7.32;86.98
28911;BME280;16028;42.642;23.310;2023-03-01T08:36:40;94401.47;;;7.30;87.98
28911;BME280;16028;42.642;23.310;2023-03-01T08:39:07;94389.34;;;7.30;88.39
28911;BME280;16028;42.642;23.310;2023-03-01T08:41:34;94393.56;;;7.31;88.36
28911;BME280;16028;42.642;23.310;2023-03-01T08:44:02;94393.09;;;7.37;88.49
28911;BME280;16028;42.642;23.310;2023-03-01T08:46:30;94397.78;;;7.43;87.50
28911;BME280;16028;42.642;23.310;2023-03-01T08:48:56;94402.50;;;7.50;88.71
28911;BME280;16028;42.642;23.310;2023-03-01T08:51:24;94407.31;;;7.65;88.59
28911;BME280;16028;42.642;23.310;2023-03-01T08:53:50;94412.09;;;7.81;87.44
28911;BME280;16028;42.642;23.310;2023-03-01T08:56:17;94410.53;;;7.89;87.14
28911;BME280;16028;42.642;23.310;2023-03-01T08:58:45;94403.53;;;8.01;86.26
28911;BME280;16028;42.642;23.310;2023-03-01T09:01:14;94401.34;;;7.96;84.97
28911;BME280;16028;42.642;23.310;2023-03-01T09:03:41;94396.84;;;7.98;86.24
28911;BME280;16028;42.642;23.310;2023-03-01T09:06:07;94405.78;;;8.06;85.97
28911;BME280;16028;42.642;23.310;2023-03-01T09:08:34;94404.22;;;8.14;84.72
28911;BME280;16028;42.642;23.310;2023-03-01T09:11:01;94404.38;;;8.02;84.30
28911;BME280;16028;42.642;23.310;2023-03-01T09:13:28;94402.75;;;8.01;85.18
28911;BME280;16028;42.642;23.310;2023-03-01T09:15:56;94403.09;;;8.07;85.98
28911;BME280;16028;42.642;23.310;2023-03-01T09:18:24;94400.09;;;8.23;84.38
28911;BME280;16028;42.642;23.310;2023-03-01T09:20:50;94394.44;;;8.18;84.28
28911;BME280;16028;42.642;23.310;2023-03-01T09:23:20;94395.16;;;8.20;85.60
28911;BME280;16028;42.642;23.310;2023-03-01T09:25:46;94393.94;;;8.24;85.07
28911;BME280;16028;42.642;23.310;2023-03-01T09:28:13;94395.13;;;8.31;85.08
28911;BME280;16028;42.642;23.310;2023-03-01T09:30:39;94396.38;;;8.36;83.00
28911;BME280;16028;42.642;23.310;2023-03-01T09:33:06;94398.66;;;8.30;83.82
28911;BME280;16028;42.642;23.310;2023-03-01T09:35:34;94394.06;;;8.22;83.89
28911;BME280;16028;42.642;23.310;2023-03-01T09:38:00;94389.31;;;8.27;83.80
28911;BME280;16028;42.642;23.310;2023-03-01T09:40:27;94386.97;;;8.35;84.44
28911;BME280;16028;42.642;23.310;2023-03-01T09:42:55;94393.53;;;8.39;84.48
28911;BME280;16028;42.642;23.310;2023-03-01T09:45:26;94393.19;;;8.44;84.28
28911;BME280;16028;42.642;23.310;2023-03-01T09:47:53;94389.75;;;8.43;83.50
28911;BME280;16028;42.642;23.310;2023-03-01T09:50:20;94384.91;;;8.50;82.77
28911;BME280;16028;42.642;23.310;2023-03-01T09:52:50;94382.69;;;8.45;82.60
28911;BME280;16028;42.642;23.310;2023-03-01T09:55:21;94379.28;;;8.45;83.34
28911;BME280;16028;42.642;23.310;2023-03-01T09:57:53;94381.09;;;8.54;83.23
28911;BME280;16028;42.642;23.310;2023-03-01T10:00:24;94369.66;;;8.57;82.77
28911;BME280;16028;42.642;23.310;2023-03-01T10:02:57;94372.50;;;8.54;82.92
28911;BME280;16028;42.642;23.310;2023-03-01T10:05:29;94363.66;;;8.56;82.61
28911;BME280;16028;42.642;23.310;2023-03-01T10:08:01;94359.19;;;8.58;82.42
28911;BME280;16028;42.642;23.310;2023-03-01T10:10:32;94361.63;;;8.60;82.78
28911;BME280;16028;42.642;23.310;2023-03-01T10:13:01;94366.19;;;8.67;82.93
28911;BME280;16028;42.642;23.310;2023-03-01T10:15:33;94352.25;;;8.68;83.52
28911;BME280;16028;42.642;23.310;2023-03-01T10:18:04;94368.38;;;8.72;82.09
28911;BME280;16028;42.642;23.310;2023-03-01T10:20:41;94368.13;;;8.75;82.68
28911;BME280;16028;42.642;23.310;2023-03-01T10:23:10;94355.41;;;8.72;81.52
28911;BME280;16028;42.642;23.310;2023-03-01T10:25:42;94347.47;;;8.64;81.92
28911;BME280;16028;42.642;23.310;2023-03-01T10:28:13;94345.13;;;8.61;82.78
28911;BME280;16028;42.642;23.310;2023-03-01T10:30:42;94343.69;;;8.68;83.32
28911;BME280;16028;42.642;23.310;2023-03-01T10:33:12;94343.09;;;8.64;82.90
28911;BME280;16028;42.642;23.310;2023-03-01T10:35:40;94344.31;;;8.60;83.21
28911;BME280;16028;42.642;23.310;2023-03-01T10:38:08;94333.69;;;8.63;83.12
28911;BME280;16028;42.642;23.310;2023-03-01T10:40:50;94338.28;;;8.60;83.01
28911;BME280;16028;42.642;23.310;2023-03-01T10:43:17;94329.56;;;8.61;84.48
28911;BME280;16028;42.642;23.310;2023-03-01T10:45:43;94333.41;;;8.66;82.79
28911;BME280;16028;42.642;23.310;2023-03-01T10:48:12;94329.56;;;8.61;82.94
28911;BME280;16028;42.642;23.310;2023-03-01T10:50:39;94333.34;;;8.57;82.78
28911;BME280;16028;42.642;23.310;2023-03-01T10:53:08;94331.19;;;8.62;83.19
28911;BME280;16028;42.642;23.310;2023-03-01T10:55:46;94330.94;;;8.65;83.01
28911;BME280;16028;42.642;23.310;2023-03-01T10:58:17;94336.75;;;8.78;83.74
28911;BME280;16028;42.642;23.310;2023-03-01T11:00:48;94338.97;;;8.82;83.76
28911;BME280;16028;42.642;23.310;2023-03-01T11:03:16;94339.22;;;8.79;82.98
28911;BME280;16028;42.642;23.310;2023-03-01T11:05:50;94343.47;;;8.80;82.40
28911;BME280;16028;42.642;23.310;2023-03-01T11:08:27;94345.09;;;8.81;82.50
28911;BME280;16028;42.642;23.310;2023-03-01T11:11:03;94338.69;;;8.85;82.46
28911;BME280;16028;42.642;23.310;2023-03-01T11:13:29;94350.84;;;8.85;81.60
28911;BME280;16028;42.642;23.310;2023-03-01T11:15:59;94349.84;;;8.76;80.86
28911;BME280;16028;42.642;23.310;2023-03-01T11:18:27;94344.84;;;8.84;81.43
28911;BME280;16028;42.642;23.310;2023-03-01T11:20:55;94345.81;;;8.83;82.23
28911;BME280;16028;42.642;23.310;2023-03-01T11:23:21;94343.06;;;8.85;82.85
28911;BME280;16028;42.642;23.310;2023-03-01T11:25:50;94341.72;;;8.90;81.94
28911;BME280;16028;42.642;23.310;2023-03-01T11:28:20;94341.66;;;8.81;82.32
28911;BME280;16028;42.642;23.310;2023-03-01T11:30:49;94344.19;;;8.92;82.82
28911;BME280;16028;42.642;23.310;2023-03-01T11:33:20;94335.31;;;8.94;81.50
28911;BME280;16028;42.642;23.310;2023-03-01T11:35:53;94338.81;;;8.84;81.68
28911;BME280;16028;42.642;23.310;2023-03-01T11:38:23;94332.53;;;8.77;81.89
28911;BME280;16028;42.642;23.310;2023-03-01T11:40:53;94329.09;;;8.76;82.14
28911;BME280;16028;42.642;23.310;2023-03-01T11:43:28;94323.78;;;8.78;81.93
28911;BME280;16028;42.642;23.310;2023-03-01T11:46:06;94326.25;;;8.79;81.75
28911;BME280;16028;42.642;23.310;2023-03-01T11:48:44;94317.75;;;8.68;81.86
28911;BME280;16028;42.642;23.310;2023-03-01T11:51:15;94315.38;;;8.65;81.79
28911;BME280;16028;42.642;23.310;2023-03-01T11:53:50;94305.72;;;8.67;82.12
28911;BME280;16028;42.642;23.310;2023-03-01T11:56:21;94309.91;;;8.58;82.57
28911;BME280;16028;42.642;23.310;2023-03-01T12:01:47;94298.34;;;8.41;82.89
28911;BME280;16028;42.642;23.310;2023-03-01T12:04:26;94294.50;;;8.36;84.14
28911;BME280;16028;42.642;23.310;2023-03-01T12:06:57;94300.69;;;8.44;83.73
28911;BME280;16028;42.642;23.310;2023-03-01T12:09:38;94295.00;;;8.50;83.17
28911;BME280;16028;42.642;23.310;2023-03-01T12:12:15;94301.41;;;8.56;82.52
28911;BME280;16028;42.642;23.310;2023-03-01T12:14:48;94296.25;;;8.56;82.94
28911;BME280;16028;42.642;23.310;2023-03-01T12:17:24;94300.66;;;8.65;83.13
28911;BME280;16028;42.642;23.310;2023-03-01T12:19:58;94296.03;;;8.69;82.99
28911;BME280;16028;42.642;23.310;2023-03-01T12:22:35;94289.22;;;8.68;82.91
28911;BME280;16028;42.642;23.310;2023-03-01T12:25:12;94288.28;;;8.78;82.26
28911;BME280;16028;42.642;23.310;2023-03-01T12:28:00;94289.53;;;8.84;82.46
28911;BME280;16028;42.642;23.310;2023-03-01T12:30:33;94294.91;;;8.92;82.22
28911;BME280;16028;42.642;23.310;2023-03-01T12:33:10;94283.75;;;9.01;80.63
28911;BME280;16028;42.642;23.310;2023-03-01T12:38:32;94279.41;;;9.11;80.85
28911;BME280;16028;42.642;23.310;2023-03-01T12:43:58;94270.00;;;9.20;81.01
28911;BME280;16028;42.642;23.310;2023-03-01T12:46:28;94276.03;;;9.20;80.73
28911;BME280;16028;42.642;23.310;2023-03-01T12:49:02;94276.84;;;9.21;80.83
28911;BME280;16028;42.642;23.310;2023-03-01T12:51:32;94275.19;;;9.20;81.81
28911;BME280;16028;42.642;23.310;2023-03-01T12:54:01;94274.66;;;9.26;81.57
28911;BME280;16028;42.642;23.310;2023-03-01T12:56:30;94274.56;;;9.37;80.96
28911;BME280;16028;42.642;23.310;2023-03-01T12:59:01;94269.66;;;9.43;80.76
28911;BME280;16028;42.642;23.310;2023-03-01T13:01:34;94271.72;;;9.49;80.24
28911;BME280;16028;42.642;23.310;2023-03-01T13:04:06;94271.97;;;9.46;79.47
28911;BME280;16028;42.642;23.310;2023-03-01T13:06:38;94277.00;;;9.38;79.12
28911;BME280;16028;42.642;23.310;2023-03-01T13:09:10;94273.47;;;9.39;80.47